Aggarp, Sweden

11:08 PM CET on December 12, 2018 (GMT +0100)
Svedala | | Change Station

Elev 177 ft 55.52 °N, 13.22 °E | Updated 10 seconds ago

Växlande molnighet
Växlande molnighet
28.8 °F
Feels Like 24 °F
N
4.6
Vind Växlande Vind from N/NV
Gusts 2.0 miles/tim

Idag
High -- | Low -- °F
--% Chance of Precip.
Yesterday
High -- | Low -- °F
Precip. -- tum
Lufttryck 30.42 tum
Sikt 6.2 miles
Molnigt Few 1700 ft
Växlande molnighet 3000 ft
Vindavkylning 24 °F
Daggpunkt 22 °F
Luftfuktighet 77%
Rainfall 0.00 tum
Snow Depth Not available.
8:25 AM 3:35 PM
Första kvarteret, 27% visible
METAR EKCH 122149Z 05009KT 9999 FEW017 SCT030 01/M02 Q1030 TEMPO BKN014
Lufttryck 30.42 tum
Sikt 6.2 miles
Molnigt Few 1700 ft
Växlande molnighet 3000 ft
Vindavkylning 24 °F
Daggpunkt 22 °F
Luftfuktighet 77%
Rainfall 0.00 tum
Snow Depth Not available.
8:25 AM 3:35 PM
Första kvarteret, 27% visible
METAR EKCH 122149Z 05009KT 9999 FEW017 SCT030 01/M02 Q1030 TEMPO BKN014

Get Severe Weather Alerts

Thanks for signing up!

Be on the lookout for a verification email in your inbox.

You'll start receiving the daily forecast at 6 AM.

×

10-Day Weather Forecast

×

Almanac

Astronomi

Dec. 12, 2018 Rise Set
Actual Time
Civil Twilight
Nautical Twilight
Astronomical Twilight
Månen
Length Of Visible Light
Dagens längd
Tomorrow will be .
, % of the Moon is Illuminated

Today's Extremes

Country Highs Country Lows

Community

WunderPhotos

Category 6

Welcome to Category 6. This is the collective home for Weather Underground's featured writeups by Dr. Jeff Masters (right), Bob Henson (left), Chris Burt, and other regular contributors.

Nearby

Air Quality

  Air Quality AQ Index Pollutant
Not available.

Snödjup

Station Depth Elevation

Earthquake Activity

Stad Distance Mag. Time & Date
Minimum magnitude displayed is 2.5.

Coastal Water Temperatures

Plats Temperatur

Stations

Nearby Weather Stations

Station Location Temp Vindavkylning Daggpunkt Luftfuktighet Vind Precip. Elev Uppdaterad Type